Time;durP1;ratioP1;P1;durP2;ratioP2;P2;SDS_P1;SDS_P2;PMS_P1;PMS_P2;Temp;Humidity;BMP_temperature;BMP_pressure;BME280_temperature;BME280_humidity;BME280_pressure;Samples;Min_cycle;Max_cycle;Signal;HPM_P1;HPM_P2
2021/03/28 00:00:37;;;;;;;3.47;2.10;;;6.80;96.90;;;;;;4878493;29;20464;-84
2021/03/28 00:03:04;;;;;;;4.50;2.50;;;6.70;97.40;;;;;;4890082;29;20487;-92
2021/03/28 00:05:34;;;;;;;3.87;2.10;;;6.50;97.80;;;;;;4879559;29;20456;-90
2021/03/28 00:08:12;;;;;;;3.80;2.60;;;6.50;98.30;;;;;;4869573;29;20519;-92
2021/03/28 00:10:44;;;;;;;4.67;3.47;;;6.50;98.40;;;;;;4878322;29;20460;-92
2021/03/28 00:13:14;;;;;;;2.90;2.30;;;6.50;98.30;;;;;;4880935;29;20451;-89
2021/03/28 00:15:56;;;;;;;5.00;2.13;;;6.50;98.30;;;;;;4875439;29;21007;-92
2021/03/28 00:18:33;;;;;;;3.67;1.93;;;6.50;98.40;;;;;;4876300;29;20483;-92
2021/03/28 00:21:23;;;;;;;4.03;2.10;;;6.40;98.50;;;;;;4888479;29;20559;-92
2021/03/28 00:23:55;;;;;;;5.27;2.00;;;6.30;98.80;;;;;;4877765;29;20482;-91
2021/03/28 00:26:33;;;;;;;3.10;2.20;;;6.20;98.90;;;;;;4873477;29;20468;-91
2021/03/28 00:29:24;;;;;;;2.93;2.10;;;6.30;98.90;;;;;;4879471;29;20544;-92
2021/03/28 00:32:06;;;;;;;4.77;2.10;;;6.10;99.20;;;;;;4875812;29;20492;-92
2021/03/28 00:34:40;;;;;;;4.23;2.27;;;6.00;99.70;;;;;;4875815;29;20456;-91
2021/03/28 00:37:08;;;;;;;3.97;2.23;;;5.90;99.90;;;;;;4873054;29;20449;-90
2021/03/28 00:40:09;;;;;;;3.73;2.10;;;5.80;99.90;;;;;;4876781;29;20548;-90
2021/03/28 00:42:43;;;;;;;2.00;1.80;;;5.70;99.90;;;;;;4806302;29;20480;-89
2021/03/28 00:45:09;;;;;;;4.03;2.43;;;5.80;99.90;;;;;;4863409;29;20448;-93
2021/03/28 00:47:37;;;;;;;2.80;2.00;;;5.80;99.90;;;;;;4881043;29;20989;-91
2021/03/28 00:50:42;;;;;;;4.07;2.33;;;5.80;99.90;;;;;;4876843;29;20245;-93
2021/03/28 00:53:15;;;;;;;4.23;2.33;;;5.80;99.90;;;;;;4880067;29;20469;-92
2021/03/28 00:56:09;;;;;;;3.90;2.87;;;5.80;99.90;;;;;;4881906;29;20445;-91
2021/03/28 00:59:00;;;;;;;2.90;2.60;;;5.70;99.90;;;;;;4877337;29;20468;-91
2021/03/28 01:01:49;;;;;;;6.40;3.03;;;5.50;99.90;;;;;;4868139;29;20801;-91
2021/03/28 01:04:47;;;;;;;5.03;2.50;;;5.40;99.90;;;;;;4878595;29;20827;-92
2021/03/28 01:07:32;;;;;;;5.10;2.50;;;5.40;99.90;;;;;;4890296;29;20450;-91
2021/03/28 01:10:35;;;;;;;8.87;3.30;;;5.40;99.90;;;;;;4875412;29;20471;-90
2021/03/28 01:13:45;;;;;;;6.17;3.13;;;5.40;99.90;;;;;;4877028;29;20624;-90
2021/03/28 01:16:48;;;;;;;4.70;2.73;;;5.40;99.90;;;;;;4889913;29;20478;-90
2021/03/28 01:19:32;;;;;;;6.33;2.60;;;5.30;99.90;;;;;;4877690;29;20448;-91
2021/03/28 01:22:19;;;;;;;3.77;2.60;;;5.30;99.90;;;;;;4872603;29;20470;-91
2021/03/28 01:25:11;;;;;;;4.07;2.70;;;5.30;99.90;;;;;;4875610;29;20468;-90
2021/03/28 01:27:52;;;;;;;4.23;2.90;;;5.20;99.90;;;;;;4876690;29;20530;-91
2021/03/28 01:30:35;;;;;;;5.00;2.70;;;5.20;99.90;;;;;;4875048;29;20736;-90
2021/03/28 01:33:25;;;;;;;5.60;3.50;;;5.10;99.90;;;;;;4882704;29;20453;-92
2021/03/28 01:36:44;;;;;;;5.87;2.07;;;5.00;99.90;;;;;;4879957;29;20456;-92
2021/03/28 01:39:23;;;;;;;3.37;2.50;;;5.00;99.90;;;;;;4815155;29;20498;-92
2021/03/28 01:41:59;;;;;;;4.83;2.50;;;5.00;99.90;;;;;;4874986;29;20461;-92
2021/03/28 01:44:31;;;;;;;5.77;2.50;;;4.90;99.90;;;;;;4876538;29;20500;-91
2021/03/28 01:47:04;;;;;;;2.93;2.17;;;4.90;99.90;;;;;;4886687;29;20475;-91
2021/03/28 01:49:56;;;;;;;4.07;2.10;;;4.90;99.90;;;;;;4888312;29;20867;-91
2021/03/28 01:52:35;;;;;;;4.53;2.20;;;4.90;99.90;;;;;;4875602;29;20461;-91
2021/03/28 01:55:15;;;;;;;5.43;1.87;;;4.90;99.90;;;;;;4878929;29;20444;-90
2021/03/28 01:57:56;;;;;;;3.90;2.00;;;4.90;99.90;;;;;;4872973;29;20481;-92
2021/03/28 02:00:55;;;;;;;3.63;1.80;;;4.90;99.90;;;;;;4873972;29;20448;-90
2021/03/28 02:03:38;;;;;;;3.63;2.30;;;4.90;99.90;;;;;;4875609;29;21524;-90
2021/03/28 02:06:30;;;;;;;3.23;2.07;;;4.80;99.90;;;;;;4891395;29;20771;-90
2021/03/28 02:10:04;;;;;;;2.20;1.70;;;4.60;99.90;;;;;;4889694;29;20453;-91
2021/03/28 02:13:01;;;;;;;6.90;2.70;;;4.80;99.90;;;;;;4792853;29;20471;-92
2021/03/28 02:15:51;;;;;;;6.00;2.57;;;4.70;99.90;;;;;;4879962;29;20450;-92
2021/03/28 02:18:45;;;;;;;4.30;2.50;;;4.70;99.90;;;;;;4871906;29;20460;-93
2021/03/28 02:21:34;;;;;;;4.13;3.30;;;4.60;99.90;;;;;;4877300;29;20441;-91
2021/03/28 02:24:39;;;;;;;4.80;2.90;;;4.50;99.90;;;;;;4878558;29;20507;-91
2021/03/28 02:27:42;;;;;;;5.63;2.87;;;4.50;99.90;;;;;;4873667;29;20460;-92
2021/03/28 02:30:46;;;;;;;6.80;3.43;;;4.50;99.90;;;;;;4875393;29;20519;-91
2021/03/28 02:33:48;;;;;;;4.80;2.83;;;4.50;99.90;;;;;;4874333;29;20444;-92
2021/03/28 02:36:27;;;;;;;4.10;3.27;;;4.40;99.90;;;;;;4886065;29;20543;-92
2021/03/28 02:39:41;;;;;;;3.60;3.17;;;4.40;99.90;;;;;;4872738;29;20531;-91
2021/03/28 02:42:09;;;;;;;6.73;3.03;;;4.40;99.90;;;;;;4870498;29;20460;-91
2021/03/28 02:44:56;;;;;;;8.20;3.27;;;4.40;99.90;;;;;;4878885;29;21065;-92
2021/03/28 02:47:53;;;;;;;5.10;2.93;;;4.40;99.90;;;;;;4873428;29;20752;-92
2021/03/28 02:50:34;;;;;;;3.77;3.03;;;4.40;99.90;;;;;;4863267;29;20859;-91
2021/03/28 02:53:09;;;;;;;3.20;2.97;;;4.40;99.90;;;;;;4873109;29;20472;-90
2021/03/28 02:56:00;;;;;;;3.53;2.60;;;4.40;99.90;;;;;;4874697;29;20463;-91
2021/03/28 02:58:57;;;;;;;4.97;2.83;;;4.50;99.90;;;;;;4875098;29;20449;-91
2021/03/28 03:01:26;;;;;;;6.67;2.90;;;4.50;99.90;;;;;;4888924;29;20459;-91
2021/03/28 03:04:00;;;;;;;6.00;3.13;;;4.50;99.90;;;;;;4880942;29;20483;-91
2021/03/28 03:06:54;;;;;;;5.33;2.93;;;4.50;99.90;;;;;;4876549;29;20531;-92
2021/03/28 03:09:44;;;;;;;4.53;2.80;;;4.30;99.90;;;;;;4871897;29;20449;-91
2021/03/28 03:12:16;;;;;;;3.50;2.40;;;4.30;99.90;;;;;;4874309;29;20615;-91
2021/03/28 03:15:24;;;;;;;4.37;2.43;;;4.30;99.90;;;;;;4875300;29;20456;-92
2021/03/28 03:18:04;;;;;;;3.70;2.73;;;4.30;99.90;;;;;;4866303;29;20465;-92
2021/03/28 03:20:41;;;;;;;3.00;2.33;;;4.20;99.90;;;;;;4876868;29;20482;-91
2021/03/28 03:23:45;;;;;;;7.13;2.47;;;4.10;99.90;;;;;;4893051;29;20820;-91
2021/03/28 03:26:28;;;;;;;2.00;1.83;;;4.10;99.90;;;;;;4898442;29;20467;-92
2021/03/28 03:29:12;;;;;;;4.97;2.30;;;4.00;99.90;;;;;;4881328;29;20491;-92
2021/03/28 03:31:57;;;;;;;8.43;2.80;;;3.90;99.90;;;;;;4883500;29;21430;-92
2021/03/28 03:34:52;;;;;;;4.67;2.93;;;4.00;99.90;;;;;;4875797;29;20453;-91
2021/03/28 03:37:53;;;;;;;3.87;2.60;;;3.80;99.90;;;;;;4874148;29;20462;-91
2021/03/28 03:40:25;;;;;;;5.60;3.20;;;3.70;99.90;;;;;;4860895;29;20440;-91
2021/03/28 03:43:28;;;;;;;4.07;2.83;;;3.70;99.90;;;;;;4880470;29;20483;-91
2021/03/28 03:46:15;;;;;;;4.30;3.33;;;3.70;99.90;;;;;;4876802;29;20472;-91
2021/03/28 03:49:19;;;;;;;3.93;2.87;;;3.70;99.90;;;;;;4877956;29;21044;-90
2021/03/28 03:52:29;;;;;;;4.43;2.70;;;3.70;99.90;;;;;;4850491;29;20921;-90
2021/03/28 03:54:58;;;;;;;4.13;2.90;;;3.60;99.90;;;;;;4873777;29;20454;-91
2021/03/28 03:57:55;;;;;;;3.00;2.67;;;3.50;99.90;;;;;;4879861;29;20469;-91
2021/03/28 04:00:26;;;;;;;3.83;3.40;;;3.60;99.90;;;;;;4886279;29;20456;-91
2021/03/28 04:03:04;;;;;;;3.40;2.10;;;3.60;99.90;;;;;;4881084;29;21003;-91
2021/03/28 04:06:13;;;;;;;6.07;2.90;;;3.50;99.90;;;;;;4878062;29;21204;-90
2021/03/28 04:09:12;;;;;;;7.80;2.50;;;3.50;99.90;;;;;;4877978;29;20454;-90
2021/03/28 04:12:12;;;;;;;3.10;2.50;;;3.60;99.90;;;;;;4880289;29;20460;-91
2021/03/28 04:15:02;;;;;;;3.97;2.53;;;3.60;99.90;;;;;;4881434;29;20540;-92
2021/03/28 04:18:22;;;;;;;4.07;2.13;;;3.60;99.90;;;;;;4881778;29;20453;-93
2021/03/28 04:21:20;;;;;;;3.23;2.80;;;3.60;99.90;;;;;;4810447;29;20443;-93
2021/03/28 04:24:34;;;;;;;5.43;2.50;;;3.50;99.90;;;;;;4879330;29;21180;-92
2021/03/28 04:27:20;;;;;;;3.60;2.37;;;3.40;99.90;;;;;;4869538;29;20447;-91
2021/03/28 04:29:49;;;;;;;5.40;2.60;;;3.40;99.90;;;;;;4880417;29;20449;-90
2021/03/28 04:32:33;;;;;;;5.67;2.87;;;3.40;99.90;;;;;;4878984;29;20451;-91
2021/03/28 04:35:11;;;;;;;4.10;3.03;;;3.30;99.90;;;;;;4874430;29;20453;-90
2021/03/28 04:37:57;;;;;;;6.20;3.20;;;3.40;99.90;;;;;;4874957;29;21144;-90
2021/03/28 04:40:26;;;;;;;5.53;2.97;;;3.30;99.90;;;;;;4877588;29;20448;-90
2021/03/28 04:46:50;;;;;;;5.33;3.10;;;3.20;99.90;;;;;;4889136;29;20457;-91
2021/03/28 04:49:45;;;;;;;5.50;3.03;;;3.20;99.90;;;;;;4807957;29;20498;-91
2021/03/28 04:52:39;;;;;;;4.40;3.33;;;3.20;99.90;;;;;;4865157;29;20442;-90
2021/03/28 04:55:23;;;;;;;7.33;2.50;;;3.10;99.90;;;;;;4854023;29;20536;-90
2021/03/28 04:57:49;;;;;;;4.90;3.07;;;3.20;99.90;;;;;;4870366;29;20962;-91
2021/03/28 05:00:38;;;;;;;4.07;2.87;;;3.20;99.90;;;;;;4876453;29;20444;-90
2021/03/28 05:03:16;;;;;;;5.63;3.10;;;3.20;99.90;;;;;;4879333;29;20307;-91
2021/03/28 05:06:06;;;;;;;3.17;2.27;;;3.10;99.90;;;;;;4889472;29;20460;-91
2021/03/28 05:09:08;;;;;;;7.30;3.00;;;3.10;99.90;;;;;;4874681;29;21538;-90
2021/03/28 05:12:18;;;;;;;4.43;3.63;;;3.00;99.90;;;;;;4874751;29;20872;-91
2021/03/28 05:15:05;;;;;;;4.93;3.20;;;3.00;99.90;;;;;;4882951;29;20539;-91
2021/03/28 05:17:56;;;;;;;3.90;2.70;;;3.00;99.90;;;;;;4877091;29;20506;-92
2021/03/28 05:23:55;;;;;;;3.53;3.10;;;3.10;99.90;;;;;;4890317;29;20493;-91
2021/03/28 05:26:58;;;;;;;7.97;3.33;;;3.10;99.90;;;;;;4881045;29;20459;-91
2021/03/28 05:29:51;;;;;;;3.80;3.23;;;3.20;99.90;;;;;;4871784;29;20544;-91
2021/03/28 05:32:20;;;;;;;4.13;3.13;;;3.30;99.90;;;;;;4879468;29;20476;-90
2021/03/28 05:35:21;;;;;;;4.90;3.43;;;3.30;99.90;;;;;;4871750;29;20462;-91
2021/03/28 05:37:52;;;;;;;4.87;2.87;;;3.30;99.90;;;;;;4876299;29;20543;-91
2021/03/28 05:40:41;;;;;;;4.47;3.60;;;3.40;99.90;;;;;;4874463;29;20452;-91
2021/03/28 05:43:07;;;;;;;4.50;3.40;;;3.40;99.90;;;;;;4871930;29;20485;-90
2021/03/28 05:45:50;;;;;;;5.97;3.23;;;3.40;99.90;;;;;;4875042;29;21749;-91
2021/03/28 05:48:34;;;;;;;8.23;3.23;;;3.50;99.90;;;;;;4873954;29;20212;-90
2021/03/28 05:51:03;;;;;;;3.10;2.73;;;3.50;99.90;;;;;;4873998;29;20457;-90
2021/03/28 05:53:54;;;;;;;3.70;2.87;;;3.50;99.90;;;;;;4886468;29;20464;-90
2021/03/28 05:56:57;;;;;;;6.57;3.40;;;3.60;99.90;;;;;;4874658;29;20800;-91
2021/03/28 05:59:43;;;;;;;4.50;3.00;;;3.60;99.90;;;;;;4873167;29;20441;-91
2021/03/28 06:02:32;;;;;;;6.00;3.50;;;3.60;99.90;;;;;;4872525;29;20459;-90
2021/03/28 06:05:28;;;;;;;4.00;3.33;;;3.60;99.90;;;;;;4875617;29;20550;-91
2021/03/28 06:08:26;;;;;;;7.03;3.53;;;3.50;99.90;;;;;;4874978;29;20479;-90
2021/03/28 06:11:28;;;;;;;4.67;2.77;;;3.50;99.90;;;;;;4874233;29;20444;-90
2021/03/28 06:14:25;;;;;;;4.07;2.90;;;3.50;99.90;;;;;;4877614;29;20468;-92
2021/03/28 06:16:54;;;;;;;4.90;2.80;;;3.40;99.90;;;;;;4877983;29;20464;-91
2021/03/28 06:19:43;;;;;;;3.20;2.90;;;3.30;99.90;;;;;;4872790;29;20791;-91
2021/03/28 06:22:27;;;;;;;4.00;3.00;;;3.40;99.90;;;;;;4872675;29;20454;-90
2021/03/28 06:25:12;;;;;;;3.70;2.97;;;3.40;99.90;;;;;;4872593;29;20456;-91
2021/03/28 06:27:59;;;;;;;5.17;2.90;;;3.30;99.90;;;;;;4872491;29;20983;-91
2021/03/28 06:30:30;;;;;;;7.10;3.70;;;3.40;99.90;;;;;;4873531;29;20582;-90
2021/03/28 06:33:39;;;;;;;4.53;3.50;;;3.60;99.90;;;;;;4874937;29;20464;-90
2021/03/28 06:36:29;;;;;;;3.20;2.57;;;3.70;99.90;;;;;;4872320;29;20451;-90
2021/03/28 06:39:06;;;;;;;5.10;3.30;;;4.00;99.90;;;;;;4873152;29;21038;-91
2021/03/28 06:42:06;;;;;;;7.33;3.23;;;4.10;99.90;;;;;;4875493;29;20497;-91
2021/03/28 06:44:56;;;;;;;6.27;3.70;;;4.20;99.90;;;;;;4881788;29;20824;-90
2021/03/28 06:47:57;;;;;;;6.30;3.73;;;4.30;99.90;;;;;;4874329;29;20542;-88
2021/03/28 06:50:29;;;;;;;4.43;3.70;;;4.40;99.90;;;;;;4879208;29;20460;-89
2021/03/28 06:53:07;;;;;;;8.37;3.50;;;4.70;99.90;;;;;;4873632;29;20498;-89
2021/03/28 06:55:42;;;;;;;4.80;3.23;;;4.80;99.90;;;;;;4875470;29;20833;-90
2021/03/28 06:58:46;;;;;;;4.10;2.43;;;4.90;99.90;;;;;;4876829;29;20449;-89
2021/03/28 07:01:31;;;;;;;3.70;2.10;;;4.90;99.90;;;;;;4886770;29;20919;-95
2021/03/28 07:04:27;;;;;;;3.57;2.40;;;5.10;99.90;;;;;;4871478;29;20487;-89
2021/03/28 07:07:19;;;;;;;5.00;2.00;;;5.30;99.90;;;;;;4875208;29;20442;-89
2021/03/28 07:09:56;;;;;;;5.87;2.27;;;5.70;99.90;;;;;;4870486;29;20468;-91
2021/03/28 07:12:28;;;;;;;5.13;2.10;;;6.00;99.90;;;;;;4874096;29;20451;-91
2021/03/28 07:15:16;;;;;;;6.10;2.40;;;6.30;99.90;;;;;;4874626;29;20981;-90
2021/03/28 07:18:22;;;;;;;2.60;2.03;;;6.50;99.90;;;;;;4876276;29;21072;-91
2021/03/28 07:21:06;;;;;;;9.13;2.60;;;6.50;99.90;;;;;;4877795;29;20542;-89
2021/03/28 07:23:54;;;;;;;6.97;2.50;;;6.70;99.90;;;;;;4871729;29;20494;-90
2021/03/28 07:26:32;;;;;;;3.10;2.17;;;6.60;99.90;;;;;;4874645;29;20440;-90
2021/03/28 07:29:35;;;;;;;3.80;2.50;;;6.60;99.90;;;;;;4873454;29;20470;-91
2021/03/28 07:32:37;;;;;;;5.10;2.50;;;6.70;99.90;;;;;;4876313;29;20471;-89
2021/03/28 07:35:34;;;;;;;4.83;2.50;;;6.60;99.90;;;;;;4873819;29;20542;-91
2021/03/28 07:38:39;;;;;;;4.50;2.93;;;6.50;99.90;;;;;;4887360;29;20485;-89
2021/03/28 07:41:32;;;;;;;3.40;2.40;;;6.70;99.90;;;;;;4832263;29;20467;-90
2021/03/28 07:44:35;;;;;;;7.20;2.77;;;6.80;99.90;;;;;;4877103;29;20887;-91
2021/03/28 07:47:26;;;;;;;5.87;2.53;;;7.10;99.50;;;;;;4876165;29;20449;-91
2021/03/28 07:50:10;;;;;;;6.67;2.53;;;7.30;98.70;;;;;;4889637;29;20764;-90
2021/03/28 07:53:07;;;;;;;3.83;2.47;;;7.40;98.50;;;;;;4872601;29;20522;-90
2021/03/28 07:56:22;;;;;;;3.40;2.27;;;7.50;98.50;;;;;;4875194;29;20455;-94
2021/03/28 07:59:33;;;;;;;6.13;2.30;;;7.90;98.50;;;;;;4872027;29;20472;-91
2021/03/28 08:02:17;;;;;;;5.60;2.40;;;8.10;97.10;;;;;;4866929;29;20455;-89
2021/03/28 08:05:21;;;;;;;3.60;2.63;;;8.40;96.70;;;;;;4887023;29;20452;-89
2021/03/28 08:07:55;;;;;;;5.40;2.60;;;8.40;97.10;;;;;;4875686;29;20451;-89
2021/03/28 08:10:29;;;;;;;8.70;3.57;;;8.60;98.20;;;;;;4872423;29;20466;-91
2021/03/28 08:13:14;;;;;;;5.97;3.03;;;8.90;97.20;;;;;;4874107;29;20479;-90
2021/03/28 08:16:07;;;;;;;4.90;2.50;;;9.10;97.40;;;;;;4875956;29;20514;-87
2021/03/28 08:19:10;;;;;;;3.50;2.23;;;9.40;97.10;;;;;;4874330;29;20767;-89
2021/03/28 08:22:29;;;;;;;5.30;2.43;;;9.40;96.40;;;;;;4888830;29;21904;-89
2021/03/28 08:25:21;;;;;;;3.60;2.57;;;9.20;96.50;;;;;;4873275;29;20469;-92
2021/03/28 08:27:58;;;;;;;5.37;3.10;;;9.00;97.40;;;;;;4847428;29;23745;-89
2021/03/28 08:30:50;;;;;;;4.00;2.20;;;8.90;97.90;;;;;;4869349;29;20456;-94
2021/03/28 08:34:09;;;;;;;5.07;2.40;;;8.90;97.50;;;;;;4842329;29;20444;-93
2021/03/28 08:37:06;;;;;;;4.20;2.30;;;9.00;97.20;;;;;;4884432;29;20495;-91
2021/03/28 08:40:10;;;;;;;3.63;2.17;;;9.20;96.30;;;;;;4896512;29;20459;-95
2021/03/28 08:43:00;;;;;;;3.30;1.80;;;9.40;96.20;;;;;;4874413;29;20951;-93
2021/03/28 08:45:29;;;;;;;6.10;2.33;;;9.40;95.10;;;;;;4871549;29;20623;-95
2021/03/28 08:48:18;;;;;;;6.37;2.60;;;9.50;94.20;;;;;;4885935;29;20491;-96
2021/03/28 08:51:08;;;;;;;5.23;1.50;;;9.60;94.60;;;;;;4891938;29;20612;-96
2021/03/28 08:53:58;;;;;;;5.10;1.93;;;10.10;92.40;;;;;;4888364;29;20493;-95
2021/03/28 08:56:43;;;;;;;3.80;2.17;;;10.20;92.20;;;;;;4885584;29;20456;-95
2021/03/28 09:34:29;;;;;;;7.03;2.47;;;12.00;79.20;;;;;;630580;23;20768;-90
2021/03/28 09:37:25;;;;;;;4.63;1.60;;;12.10;78.80;;;;;;4842753;29;20535;-90
2021/03/28 09:40:10;;;;;;;2.97;2.00;;;12.20;78.50;;;;;;4841953;29;20446;-88
2021/03/28 09:43:02;;;;;;;6.80;3.90;;;12.00;79.10;;;;;;4842784;29;20474;-88
2021/03/28 09:45:40;;;;;;;6.70;3.13;;;11.90;79.10;;;;;;4826540;29;20478;-89
2021/03/28 09:48:09;;;;;;;3.60;2.10;;;12.20;76.10;;;;;;4855688;29;20458;-87
2021/03/28 09:50:56;;;;;;;3.37;1.77;;;12.60;72.90;;;;;;4842378;29;20450;-89
2021/03/28 09:54:02;;;;;;;2.70;1.77;;;12.60;70.60;;;;;;4842497;29;20442;-91
2021/03/28 09:57:00;;;;;;;3.43;1.63;;;12.70;75.00;;;;;;4848897;29;20492;-92
2021/03/28 10:00:03;;;;;;;1.90;1.20;;;13.00;63.90;;;;;;4827568;29;20838;-95
2021/03/28 10:05:27;;;;;;;2.17;1.47;;;13.40;53.90;;;;;;4957959;23;20561;-95
2021/03/28 10:08:07;;;;;;;2.30;1.40;;;13.10;53.90;;;;;;4853108;29;21998;-94
2021/03/28 10:13:37;;;;;;;1.50;1.37;;;13.50;49.80;;;;;;5203132;23;20509;-96
2021/03/28 10:16:42;;;;;;;4.07;1.67;;;13.20;49.90;;;;;;4876211;29;20437;-96
2021/03/28 10:19:16;;;;;;;4.07;1.63;;;13.30;51.40;;;;;;4855002;29;20461;-93
2021/03/28 10:21:51;;;;;;;1.57;1.37;;;13.20;52.40;;;;;;4861880;29;20465;-94
2021/03/28 10:24:33;;;;;;;2.00;1.63;;;13.00;50.90;;;;;;4849823;29;21884;-96
2021/03/28 10:27:08;;;;;;;2.57;1.40;;;13.30;51.40;;;;;;4869898;29;20442;-95
2021/03/28 10:30:05;;;;;;;3.70;1.70;;;13.10;50.60;;;;;;4923464;23;20495;-96
2021/03/28 10:36:13;;;;;;;4.30;1.77;;;13.60;49.50;;;;;;4873141;29;20463;-94
2021/03/28 10:38:42;;;;;;;4.00;1.83;;;13.70;49.00;;;;;;4886742;29;20491;-95
2021/03/28 10:41:17;;;;;;;4.30;1.40;;;13.50;49.40;;;;;;4868158;29;21028;-95
2021/03/28 10:43:46;;;;;;;5.20;1.70;;;13.40;50.30;;;;;;4858334;29;20502;-96
2021/03/28 10:46:43;;;;;;;2.23;1.50;;;13.50;50.60;;;;;;5053355;23;20505;-96
2021/03/28 10:54:26;;;;;;;2.50;1.73;;;14.50;48.30;;;;;;5150571;23;20506;-94
2021/03/28 10:57:49;;;;;;;4.73;1.47;;;14.20;46.80;;;;;;4878793;29;20598;-96
2021/03/28 11:00:52;;;;;;;4.13;1.60;;;14.10;47.00;;;;;;4951367;23;20630;-93
2021/03/28 11:03:50;;;;;;;2.20;1.87;;;13.90;46.80;;;;;;4861207;29;20556;-93
2021/03/28 11:06:48;;;;;;;3.17;1.57;;;13.80;46.50;;;;;;4880548;29;20531;-96
2021/03/28 11:09:41;;;;;;;5.50;1.60;;;14.20;46.40;;;;;;4876810;29;20557;-96
2021/03/28 11:12:32;;;;;;;3.13;1.50;;;14.40;45.70;;;;;;4882778;29;20477;-96
2021/03/28 11:15:03;;;;;;;2.50;1.43;;;14.50;44.80;;;;;;4909065;23;20507;-94
2021/03/28 11:18:07;;;;;;;2.50;1.80;;;14.80;44.40;;;;;;4900886;29;20443;-95
2021/03/28 11:21:08;;;;;;;4.00;1.70;;;14.80;44.30;;;;;;4898684;29;20448;-96
2021/03/28 11:27:00;;;;;;;3.30;1.87;;;14.70;45.00;;;;;;5151458;23;20603;-94
2021/03/28 11:30:11;;;;;;;2.77;1.70;;;14.70;45.50;;;;;;4898762;29;20488;-92
2021/03/28 11:32:49;;;;;;;4.47;1.53;;;15.00;46.10;;;;;;4890688;29;20463;-88
2021/03/28 11:35:25;;;;;;;3.53;1.83;;;14.80;46.40;;;;;;4885121;29;20478;-90
2021/03/28 11:37:50;;;;;;;2.93;1.80;;;15.00;48.00;;;;;;4888653;29;20451;-91
2021/03/28 11:40:16;;;;;;;3.10;1.90;;;15.00;46.50;;;;;;4887924;29;20460;-89
2021/03/28 11:42:44;;;;;;;4.00;1.80;;;15.20;46.70;;;;;;4884148;29;20677;-92
2021/03/28 11:45:30;;;;;;;2.83;2.30;;;15.20;46.80;;;;;;4883928;29;20188;-91
2021/03/28 11:47:56;;;;;;;3.50;1.77;;;15.20;46.10;;;;;;4882236;29;20846;-91
2021/03/28 11:50:25;;;;;;;5.53;1.80;;;15.60;45.60;;;;;;4882340;29;20445;-91
2021/03/28 11:53:07;;;;;;;3.50;1.90;;;15.90;46.20;;;;;;4883053;29;20259;-91
2021/03/28 11:56:03;;;;;;;2.50;1.60;;;15.90;45.50;;;;;;4898279;29;20547;-92
2021/03/28 11:58:38;;;;;;;3.70;1.70;;;15.90;45.00;;;;;;4869502;29;20523;-94
2021/03/28 12:01:05;;;;;;;5.67;1.43;;;15.50;45.10;;;;;;4899264;29;20471;-93
2021/03/28 12:03:39;;;;;;;6.07;1.60;;;16.00;46.40;;;;;;4886801;29;20476;-95
2021/03/28 12:06:28;;;;;;;2.03;1.47;;;16.00;45.60;;;;;;4888166;29;20524;-92
2021/03/28 12:08:56;;;;;;;2.70;1.40;;;15.90;44.70;;;;;;4883149;29;20532;-92
2021/03/28 12:11:45;;;;;;;3.37;1.80;;;15.80;44.20;;;;;;4867799;29;20468;-92
2021/03/28 12:14:14;;;;;;;5.87;1.90;;;15.90;44.60;;;;;;4886168;29;20610;-91
2021/03/28 12:17:10;;;;;;;6.00;1.63;;;15.80;45.30;;;;;;4884066;29;20460;-91
2021/03/28 12:19:59;;;;;;;2.43;1.57;;;15.70;45.10;;;;;;4878118;29;20548;-91
2021/03/28 12:22:25;;;;;;;3.47;1.73;;;16.10;44.50;;;;;;4882073;29;20441;-91
2021/03/28 12:25:23;;;;;;;4.30;1.67;;;16.20;44.40;;;;;;4884239;29;20998;-92
2021/03/28 12:27:58;;;;;;;2.97;1.37;;;16.30;44.30;;;;;;4885423;29;20295;-93
2021/03/28 12:30:41;;;;;;;3.20;1.90;;;16.80;44.90;;;;;;4881750;29;21005;-91
2021/03/28 12:33:44;;;;;;;3.40;1.80;;;16.80;43.90;;;;;;4886676;29;20592;-94
2021/03/28 12:36:11;;;;;;;2.73;1.80;;;16.60;43.10;;;;;;4974526;23;20505;-96
2021/03/28 12:38:47;;;;;;;4.00;1.77;;;16.30;43.70;;;;;;4880545;29;20490;-95
2021/03/28 12:41:16;;;;;;;4.10;1.63;;;16.40;43.30;;;;;;4864843;29;21076;-95
2021/03/28 12:43:51;;;;;;;5.00;2.33;;;16.60;44.80;;;;;;4883404;29;20486;-96
2021/03/28 12:49:50;;;;;;;2.10;1.33;;;17.00;41.60;;;;;;5255885;23;20878;-95
2021/03/28 12:57:49;;;;;;;1.77;1.20;;;16.90;40.80;;;;;;4978106;23;20493;-95
2021/03/28 13:00:35;;;;;;;4.07;1.27;;;16.80;40.60;;;;;;4890085;29;20452;-94
2021/03/28 13:03:25;;;;;;;3.70;1.20;;;17.20;41.30;;;;;;4885686;29;20449;-95
2021/03/28 13:06:00;;;;;;;2.83;1.40;;;17.40;39.20;;;;;;4878388;29;20449;-93
2021/03/28 13:08:26;;;;;;;2.50;1.40;;;17.90;39.00;;;;;;4881723;29;20955;-92
2021/03/28 13:11:00;;;;;;;5.20;2.03;;;18.20;37.80;;;;;;4893041;29;20535;-93
2021/03/28 13:13:28;;;;;;;3.50;1.70;;;18.20;38.60;;;;;;4887394;29;20532;-91
2021/03/28 13:15:59;;;;;;;1.90;1.50;;;17.80;39.10;;;;;;4878845;29;20456;-90
2021/03/28 13:18:30;;;;;;;2.40;1.30;;;17.90;39.20;;;;;;4876760;29;20453;-90
2021/03/28 13:21:08;;;;;;;1.60;1.27;;;18.40;38.50;;;;;;4877549;29;20456;-90
2021/03/28 13:23:37;;;;;;;2.33;1.60;;;18.50;37.80;;;;;;4875816;29;20448;-91
2021/03/28 13:26:08;;;;;;;3.57;1.30;;;18.90;37.50;;;;;;4882198;29;20474;-90
2021/03/28 13:28:35;;;;;;;4.53;1.87;;;18.50;36.80;;;;;;4879043;29;20461;-89
2021/03/28 13:31:16;;;;;;;3.67;1.43;;;18.30;37.10;;;;;;4881854;29;20553;-91
2021/03/28 13:33:46;;;;;;;2.10;1.40;;;18.60;36.80;;;;;;4874002;29;20884;-90
2021/03/28 13:36:23;;;;;;;3.03;1.43;;;18.70;37.00;;;;;;4873443;29;20477;-90
2021/03/28 13:39:07;;;;;;;2.33;1.30;;;19.30;37.20;;;;;;4869429;29;20522;-91
2021/03/28 13:41:57;;;;;;;3.20;1.80;;;19.20;35.00;;;;;;4878747;29;20475;-91
2021/03/28 13:44:25;;;;;;;2.80;1.50;;;19.40;35.70;;;;;;4843609;29;20813;-91
2021/03/28 13:47:01;;;;;;;2.83;1.40;;;19.70;35.10;;;;;;4878805;29;20444;-92
2021/03/28 13:49:42;;;;;;;2.60;1.67;;;19.60;35.70;;;;;;4882269;29;21310;-92
2021/03/28 13:52:19;;;;;;;2.90;1.67;;;19.60;34.50;;;;;;4876033;29;20879;-92
2021/03/28 13:55:06;;;;;;;2.23;1.80;;;20.10;34.40;;;;;;4878156;29;20531;-91
2021/03/28 13:57:37;;;;;;;2.70;2.00;;;20.50;33.70;;;;;;4871419;29;20476;-92
2021/03/28 14:00:32;;;;;;;2.80;1.50;;;19.50;31.60;;;;;;4877110;29;20481;-94
2021/03/28 14:02:59;;;;;;;3.23;1.20;;;19.30;32.70;;;;;;4878042;29;20461;-94
2021/03/28 14:05:32;;;;;;;2.33;1.87;;;19.90;33.00;;;;;;4873420;29;20540;-87
2021/03/28 14:08:00;;;;;;;1.50;1.23;;;19.80;31.80;;;;;;4877606;29;20453;-89
2021/03/28 14:10:29;;;;;;;3.00;1.90;;;19.80;31.80;;;;;;4877132;29;20468;-89
2021/03/28 14:13:22;;;;;;;5.27;2.00;;;20.10;31.90;;;;;;4875311;29;20804;-88
2021/03/28 14:16:00;;;;;;;2.00;1.80;;;20.60;31.90;;;;;;4879530;29;20449;-88
2021/03/28 14:18:45;;;;;;;2.73;1.73;;;21.90;30.70;;;;;;4877409;29;21206;-87
2021/03/28 14:21:33;;;;;;;3.77;1.33;;;22.80;29.90;;;;;;4874623;29;20464;-86
2021/03/28 14:24:07;;;;;;;2.37;1.37;;;24.20;28.60;;;;;;4885341;29;20457;-94
2021/03/28 14:27:13;;;;;;;1.90;1.50;;;24.80;28.00;;;;;;4874343;29;20449;-90
2021/03/28 14:29:45;;;;;;;2.50;1.70;;;25.80;26.40;;;;;;4877858;29;20990;-92
2021/03/28 14:32:11;;;;;;;1.67;1.57;;;27.00;25.30;;;;;;4877776;29;20448;-89
2021/03/28 14:34:56;;;;;;;3.00;1.60;;;27.60;24.30;;;;;;4872935;29;20473;-95
2021/03/28 14:38:06;;;;;;;3.70;1.73;;;26.60;25.00;;;;;;4874329;29;20208;-94
2021/03/28 14:40:50;;;;;;;2.50;1.67;;;25.80;25.00;;;;;;4796362;29;20468;-88
2021/03/28 14:43:44;;;;;;;1.47;1.03;;;25.50;26.10;;;;;;4871089;29;20971;-89
2021/03/28 14:46:47;;;;;;;2.77;1.47;;;25.20;25.90;;;;;;4886289;29;20459;-90
2021/03/28 14:49:49;;;;;;;1.93;1.53;;;24.10;26.20;;;;;;4900770;29;20983;-94
2021/03/28 14:52:17;;;;;;;3.37;1.40;;;22.80;26.90;;;;;;4885066;29;20459;-96
2021/03/28 14:55:02;;;;;;;1.70;1.60;;;22.60;27.40;;;;;;4877037;29;20484;-85
2021/03/28 14:57:48;;;;;;;3.70;1.80;;;22.80;27.50;;;;;;4864243;29;20461;-89
2021/03/28 15:00:23;;;;;;;1.63;1.40;;;24.40;26.60;;;;;;4868977;29;20572;-86
2021/03/28 15:03:17;;;;;;;3.53;1.70;;;25.20;26.10;;;;;;4868221;29;20440;-86
2021/03/28 15:06:01;;;;;;;1.80;1.50;;;25.70;25.80;;;;;;4886695;29;20453;-89
2021/03/28 15:08:42;;;;;;;1.97;1.70;;;26.10;26.20;;;;;;4887632;29;20444;-92
2021/03/28 15:14:18;;;;;;;2.30;1.47;;;25.70;24.90;;;;;;4939780;23;20484;-95
2021/03/28 15:16:58;;;;;;;1.57;1.33;;;23.50;26.20;;;;;;4885552;29;20468;-87
2021/03/28 15:19:35;;;;;;;1.73;1.60;;;23.70;27.10;;;;;;4864319;29;20460;-88
2021/03/28 15:22:17;;;;;;;1.90;1.70;;;23.50;27.30;;;;;;4880829;29;20452;-89
2021/03/28 15:25:05;;;;;;;4.03;1.80;;;22.50;27.30;;;;;;4879419;29;20452;-90
2021/03/28 15:27:46;;;;;;;2.47;2.23;;;22.10;27.80;;;;;;4881287;29;20437;-96
2021/03/28 15:33:21;;;;;;;4.22;2.03;;;20.50;29.30;;;;;;4906374;28;21901;-92
2021/03/28 15:36:04;;;;;;;2.50;1.67;;;21.40;29.50;;;;;;4882763;29;20908;-96
2021/03/28 15:39:06;;;;;;;1.60;1.50;;;21.60;28.70;;;;;;4871161;29;20456;-96
2021/03/28 15:41:58;;;;;;;3.00;1.90;;;21.70;28.30;;;;;;4867887;29;20465;-96
2021/03/28 15:44:57;;;;;;;1.70;1.60;;;21.70;28.60;;;;;;4873968;29;20465;-94